sensor_id;sensor_type;location;lat;lon;timestamp;temperature;humidity
13072;DHT22;6602;58.934;11.166;2023-03-03T00:05:01;-0.80;99.90
13072;DHT22;6602;58.934;11.166;2023-03-03T00:10:07;-0.80;99.90
13072;DHT22;6602;58.934;11.166;2023-03-03T00:15:23;-0.90;99.90
13072;DHT22;6602;58.934;11.166;2023-03-03T00:20:38;-1.00;99.90
13072;DHT22;6602;58.934;11.166;2023-03-03T00:25:58;-1.10;99.90
13072;DHT22;6602;58.934;11.166;2023-03-03T00:31:11;-1.00;99.90
13072;DHT22;6602;58.934;11.166;2023-03-03T00:36:37;-1.00;99.90
13072;DHT22;6602;58.934;11.166;2023-03-03T00:41:41;-1.00;99.90
13072;DHT22;6602;58.934;11.166;2023-03-03T00:46:45;-1.00;99.90
13072;DHT22;6602;58.934;11.166;2023-03-03T00:51:53;-1.00;99.90
13072;DHT22;6602;58.934;11.166;2023-03-03T00:56:58;-1.00;99.90
13072;DHT22;6602;58.934;11.166;2023-03-03T01:02:01;-1.00;99.90
13072;DHT22;6602;58.934;11.166;2023-03-03T01:07:05;-1.00;99.90
13072;DHT22;6602;58.934;11.166;2023-03-03T01:12:10;-1.00;99.90
13072;DHT22;6602;58.934;11.166;2023-03-03T01:17:13;-1.00;99.90
13072;DHT22;6602;58.934;11.166;2023-03-03T01:22:23;-1.00;99.90
13072;DHT22;6602;58.934;11.166;2023-03-03T01:27:23;-1.00;99.90
13072;DHT22;6602;58.934;11.166;2023-03-03T01:32:30;-1.10;99.90
13072;DHT22;6602;58.934;11.166;2023-03-03T01:37:34;-1.10;99.90
13072;DHT22;6602;58.934;11.166;2023-03-03T01:42:35;-1.20;99.90
13072;DHT22;6602;58.934;11.166;2023-03-03T01:47:46;-1.10;99.90
13072;DHT22;6602;58.934;11.166;2023-03-03T01:52:52;-1.20;99.90
13072;DHT22;6602;58.934;11.166;2023-03-03T01:58:16;-1.20;99.90
13072;DHT22;6602;58.934;11.166;2023-03-03T02:03:20;-1.20;99.90
13072;DHT22;6602;58.934;11.166;2023-03-03T02:08:48;-1.10;99.90
13072;DHT22;6602;58.934;11.166;2023-03-03T02:13:52;-1.10;99.90
13072;DHT22;6602;58.934;11.166;2023-03-03T02:18:57;-1.00;99.90
13072;DHT22;6602;58.934;11.166;2023-03-03T02:29:07;-1.00;99.90
13072;DHT22;6602;58.934;11.166;2023-03-03T02:34:08;-1.00;99.90
13072;DHT22;6602;58.934;11.166;2023-03-03T02:39:21;-1.00;99.90
13072;DHT22;6602;58.934;11.166;2023-03-03T02:44:29;-0.90;99.90
13072;DHT22;6602;58.934;11.166;2023-03-03T02:49:37;-0.90;99.90
13072;DHT22;6602;58.934;11.166;2023-03-03T02:54:49;-0.90;99.90
13072;DHT22;6602;58.934;11.166;2023-03-03T02:59:52;-1.00;99.90
13072;DHT22;6602;58.934;11.166;2023-03-03T03:04:57;-1.00;99.90
13072;DHT22;6602;58.934;11.166;2023-03-03T03:09:57;-1.00;99.90
13072;DHT22;6602;58.934;11.166;2023-03-03T03:15:01;-0.90;99.90
13072;DHT22;6602;58.934;11.166;2023-03-03T03:20:05;-0.90;99.90
13072;DHT22;6602;58.934;11.166;2023-03-03T03:25:08;-1.00;99.90
13072;DHT22;6602;58.934;11.166;2023-03-03T03:30:10;-1.00;99.90
13072;DHT22;6602;58.934;11.166;2023-03-03T03:35:11;-1.10;99.90
13072;DHT22;6602;58.934;11.166;2023-03-03T03:40:13;-1.00;99.90
13072;DHT22;6602;58.934;11.166;2023-03-03T03:45:20;-1.10;99.90
13072;DHT22;6602;58.934;11.166;2023-03-03T03:50:21;-1.10;99.90
13072;DHT22;6602;58.934;11.166;2023-03-03T03:55:22;-1.10;99.90
13072;DHT22;6602;58.934;11.166;2023-03-03T04:00:26;-1.00;99.90
13072;DHT22;6602;58.934;11.166;2023-03-03T04:05:27;-1.00;99.90
13072;DHT22;6602;58.934;11.166;2023-03-03T04:10:29;-1.10;99.90
13072;DHT22;6602;58.934;11.166;2023-03-03T04:15:30;-1.10;99.90
13072;DHT22;6602;58.934;11.166;2023-03-03T04:20:31;-1.00;99.90
13072;DHT22;6602;58.934;11.166;2023-03-03T04:25:32;-1.10;99.90
13072;DHT22;6602;58.934;11.166;2023-03-03T04:30:34;-1.10;99.90
13072;DHT22;6602;58.934;11.166;2023-03-03T04:35:35;-1.00;99.90
13072;DHT22;6602;58.934;11.166;2023-03-03T04:40:40;-1.10;99.90
13072;DHT22;6602;58.934;11.166;2023-03-03T04:45:41;-1.00;99.90
13072;DHT22;6602;58.934;11.166;2023-03-03T04:50:45;-0.90;99.90
13072;DHT22;6602;58.934;11.166;2023-03-03T04:55:50;-0.90;99.90
13072;DHT22;6602;58.934;11.166;2023-03-03T05:00:56;-1.00;99.90
13072;DHT22;6602;58.934;11.166;2023-03-03T05:05:57;-1.00;99.90
13072;DHT22;6602;58.934;11.166;2023-03-03T05:10:58;-0.90;99.90
13072;DHT22;6602;58.934;11.166;2023-03-03T05:16:05;-0.90;99.90
13072;DHT22;6602;58.934;11.166;2023-03-03T05:21:08;-0.90;99.90
13072;DHT22;6602;58.934;11.166;2023-03-03T05:26:13;-0.90;99.90
13072;DHT22;6602;58.934;11.166;2023-03-03T05:31:15;-0.90;99.90
13072;DHT22;6602;58.934;11.166;2023-03-03T05:36:16;-0.90;99.90
13072;DHT22;6602;58.934;11.166;2023-03-03T05:41:23;-0.90;99.90
13072;DHT22;6602;58.934;11.166;2023-03-03T05:46:24;-1.00;99.90
13072;DHT22;6602;58.934;11.166;2023-03-03T05:51:31;-1.00;99.90
13072;DHT22;6602;58.934;11.166;2023-03-03T05:56:32;-1.00;99.90
13072;DHT22;6602;58.934;11.166;2023-03-03T06:01:33;-1.00;99.90
13072;DHT22;6602;58.934;11.166;2023-03-03T06:06:34;-1.00;99.90
13072;DHT22;6602;58.934;11.166;2023-03-03T06:11:38;-1.00;99.90
13072;DHT22;6602;58.934;11.166;2023-03-03T06:16:43;-1.00;99.90
13072;DHT22;6602;58.934;11.166;2023-03-03T06:21:50;-1.00;99.90
13072;DHT22;6602;58.934;11.166;2023-03-03T06:26:58;-1.00;99.90
13072;DHT22;6602;58.934;11.166;2023-03-03T06:32:10;-0.90;99.90
13072;DHT22;6602;58.934;11.166;2023-03-03T06:37:17;-0.80;99.90
13072;DHT22;6602;58.934;11.166;2023-03-03T06:42:21;-0.80;99.90
13072;DHT22;6602;58.934;11.166;2023-03-03T06:47:27;-0.70;99.90
13072;DHT22;6602;58.934;11.166;2023-03-03T06:52:30;-0.60;99.90
13072;DHT22;6602;58.934;11.166;2023-03-03T06:57:37;-0.60;99.90
13072;DHT22;6602;58.934;11.166;2023-03-03T07:02:38;-0.80;99.90
13072;DHT22;6602;58.934;11.166;2023-03-03T07:07:40;-0.90;99.90
13072;DHT22;6602;58.934;11.166;2023-03-03T07:12:57;-0.80;99.90
13072;DHT22;6602;58.934;11.166;2023-03-03T07:17:59;-0.70;99.90
13072;DHT22;6602;58.934;11.166;2023-03-03T07:23:37;-0.70;99.90
13072;DHT22;6602;58.934;11.166;2023-03-03T07:28:52;-0.70;99.90
13072;DHT22;6602;58.934;11.166;2023-03-03T07:33:56;-0.60;99.90
13072;DHT22;6602;58.934;11.166;2023-03-03T07:39:03;-0.50;99.90
13072;DHT22;6602;58.934;11.166;2023-03-03T07:44:30;-0.50;99.90
13072;DHT22;6602;58.934;11.166;2023-03-03T07:49:37;-0.40;99.90
13072;DHT22;6602;58.934;11.166;2023-03-03T07:54:39;-0.30;99.90
13072;DHT22;6602;58.934;11.166;2023-03-03T07:59:48;-0.20;99.90
13072;DHT22;6602;58.934;11.166;2023-03-03T08:04:50;0.00;99.90
13072;DHT22;6602;58.934;11.166;2023-03-03T08:09:59;0.00;99.90
13072;DHT22;6602;58.934;11.166;2023-03-03T08:15:20;0.20;99.90
13072;DHT22;6602;58.934;11.166;2023-03-03T08:20:42;0.40;99.90
13072;DHT22;6602;58.934;11.166;2023-03-03T08:25:53;0.60;99.90
13072;DHT22;6602;58.934;11.166;2023-03-03T08:31:04;0.80;99.90
13072;DHT22;6602;58.934;11.166;2023-03-03T08:36:09;1.00;99.90
13072;DHT22;6602;58.934;11.166;2023-03-03T08:41:10;1.20;99.90
13072;DHT22;6602;58.934;11.166;2023-03-03T08:46:11;1.40;99.90
13072;DHT22;6602;58.934;11.166;2023-03-03T08:51:18;1.70;99.90
13072;DHT22;6602;58.934;11.166;2023-03-03T08:56:19;1.90;99.90
13072;DHT22;6602;58.934;11.166;2023-03-03T09:01:23;2.10;99.90
13072;DHT22;6602;58.934;11.166;2023-03-03T09:06:28;2.30;99.90
13072;DHT22;6602;58.934;11.166;2023-03-03T09:11:29;2.50;99.90
13072;DHT22;6602;58.934;11.166;2023-03-03T09:16:37;2.70;99.90
13072;DHT22;6602;58.934;11.166;2023-03-03T09:21:42;3.00;99.90
13072;DHT22;6602;58.934;11.166;2023-03-03T09:26:49;3.20;99.90
13072;DHT22;6602;58.934;11.166;2023-03-03T09:32:01;3.40;99.90
13072;DHT22;6602;58.934;11.166;2023-03-03T09:37:36;3.40;99.90
13072;DHT22;6602;58.934;11.166;2023-03-03T09:43:03;3.60;99.90
13072;DHT22;6602;58.934;11.166;2023-03-03T09:48:41;3.80;99.90
13072;DHT22;6602;58.934;11.166;2023-03-03T09:54:07;3.90;99.90
13072;DHT22;6602;58.934;11.166;2023-03-03T10:21:49;4.80;99.90
13072;DHT22;6602;58.934;11.166;2023-03-03T10:38:40;5.60;99.90
13072;DHT22;6602;58.934;11.166;2023-03-03T10:54:35;5.90;99.90
13072;DHT22;6602;58.934;11.166;2023-03-03T11:16:05;6.10;99.90
13072;DHT22;6602;58.934;11.166;2023-03-03T11:54:29;6.30;99.90
13072;DHT22;6602;58.934;11.166;2023-03-03T12:05:15;6.40;99.90
13072;DHT22;6602;58.934;11.166;2023-03-03T12:10:56;6.30;99.90
13072;DHT22;6602;58.934;11.166;2023-03-03T12:22:05;6.30;99.90
13072;DHT22;6602;58.934;11.166;2023-03-03T12:49:08;6.20;99.90
13072;DHT22;6602;58.934;11.166;2023-03-03T13:05:57;6.40;99.90
13072;DHT22;6602;58.934;11.166;2023-03-03T13:27:43;6.80;99.90
13072;DHT22;6602;58.934;11.166;2023-03-03T13:33:29;7.00;99.90
13072;DHT22;6602;58.934;11.166;2023-03-03T13:38:56;7.00;99.90
13072;DHT22;6602;58.934;11.166;2023-03-03T13:44:39;6.90;99.90
13072;DHT22;6602;58.934;11.166;2023-03-03T13:50:11;6.80;99.90
13072;DHT22;6602;58.934;11.166;2023-03-03T13:55:36;6.80;99.90
13072;DHT22;6602;58.934;11.166;2023-03-03T14:01:37;6.90;99.90
13072;DHT22;6602;58.934;11.166;2023-03-03T14:07:12;6.90;99.90
13072;DHT22;6602;58.934;11.166;2023-03-03T14:13:02;6.90;99.90
13072;DHT22;6602;58.934;11.166;2023-03-03T14:29:35;6.80;99.90
13072;DHT22;6602;58.934;11.166;2023-03-03T14:35:20;6.70;99.90
13072;DHT22;6602;58.934;11.166;2023-03-03T14:40:32;6.70;99.90
13072;DHT22;6602;58.934;11.166;2023-03-03T14:45:38;6.80;99.90
13072;DHT22;6602;58.934;11.166;2023-03-03T14:51:25;6.80;99.90
13072;DHT22;6602;58.934;11.166;2023-03-03T14:56:58;6.80;99.90
13072;DHT22;6602;58.934;11.166;2023-03-03T15:02:40;6.60;99.90
13072;DHT22;6602;58.934;11.166;2023-03-03T15:08:08;6.50;99.90
13072;DHT22;6602;58.934;11.166;2023-03-03T15:13:33;6.50;99.90
13072;DHT22;6602;58.934;11.166;2023-03-03T15:19:32;6.30;99.90
13072;DHT22;6602;58.934;11.166;2023-03-03T15:24:57;6.40;99.90
13072;DHT22;6602;58.934;11.166;2023-03-03T15:47:14;6.20;99.90
13072;DHT22;6602;58.934;11.166;2023-03-03T15:52:52;6.10;99.90
13072;DHT22;6602;58.934;11.166;2023-03-03T16:03:30;6.00;99.90
13072;DHT22;6602;58.934;11.166;2023-03-03T16:09:18;6.00;99.90
13072;DHT22;6602;58.934;11.166;2023-03-03T16:20:17;6.00;99.90
13072;DHT22;6602;58.934;11.166;2023-03-03T16:30:51;6.00;99.90
13072;DHT22;6602;58.934;11.166;2023-03-03T16:41:46;5.80;99.90
13072;DHT22;6602;58.934;11.166;2023-03-03T17:11:00;6.10;99.90
13072;DHT22;6602;58.934;11.166;2023-03-03T17:17:10;6.30;99.90
13072;DHT22;6602;58.934;11.166;2023-03-03T17:22:21;6.50;99.90
13072;DHT22;6602;58.934;11.166;2023-03-03T17:44:39;6.90;99.90
13072;DHT22;6602;58.934;11.166;2023-03-03T18:12:34;7.00;99.90
13072;DHT22;6602;58.934;11.166;2023-03-03T18:23:43;7.00;99.90
13072;DHT22;6602;58.934;11.166;2023-03-03T18:29:11;7.00;99.90
13072;DHT22;6602;58.934;11.166;2023-03-03T18:34:41;6.90;99.90
13072;DHT22;6602;58.934;11.166;2023-03-03T18:50:38;6.80;99.90
13072;DHT22;6602;58.934;11.166;2023-03-03T18:56:01;6.70;99.90
13072;DHT22;6602;58.934;11.166;2023-03-03T19:11:55;6.50;99.90
13072;DHT22;6602;58.934;11.166;2023-03-03T19:22:25;6.30;99.90
13072;DHT22;6602;58.934;11.166;2023-03-03T19:27:41;6.20;99.90
13072;DHT22;6602;58.934;11.166;2023-03-03T19:33:13;6.20;99.90
13072;DHT22;6602;58.934;11.166;2023-03-03T19:49:39;6.10;99.90
13072;DHT22;6602;58.934;11.166;2023-03-03T20:00:44;6.10;99.90
13072;DHT22;6602;58.934;11.166;2023-03-03T20:17:38;6.10;99.90
13072;DHT22;6602;58.934;11.166;2023-03-03T20:39:42;5.80;99.90
13072;DHT22;6602;58.934;11.166;2023-03-03T20:56:35;5.80;99.90
13072;DHT22;6602;58.934;11.166;2023-03-03T21:02:28;5.80;99.90
13072;DHT22;6602;58.934;11.166;2023-03-03T21:08:04;5.60;99.90
13072;DHT22;6602;58.934;11.166;2023-03-03T21:13:33;5.60;99.90
13072;DHT22;6602;58.934;11.166;2023-03-03T21:18:58;5.40;99.90
13072;DHT22;6602;58.934;11.166;2023-03-03T21:24:46;5.20;99.90
13072;DHT22;6602;58.934;11.166;2023-03-03T21:30:14;5.10;99.90
13072;DHT22;6602;58.934;11.166;2023-03-03T21:35:27;5.00;99.90
13072;DHT22;6602;58.934;11.166;2023-03-03T21:40:59;4.90;99.90
13072;DHT22;6602;58.934;11.166;2023-03-03T21:46:09;4.80;99.90
13072;DHT22;6602;58.934;11.166;2023-03-03T21:51:24;4.70;99.90
13072;DHT22;6602;58.934;11.166;2023-03-03T21:56:37;4.60;99.90
13072;DHT22;6602;58.934;11.166;2023-03-03T22:01:59;4.60;99.90
13072;DHT22;6602;58.934;11.166;2023-03-03T22:07:19;4.60;99.90
13072;DHT22;6602;58.934;11.166;2023-03-03T22:12:23;4.60;99.90
13072;DHT22;6602;58.934;11.166;2023-03-03T22:17:37;4.70;99.90
13072;DHT22;6602;58.934;11.166;2023-03-03T22:22:43;4.70;99.90
13072;DHT22;6602;58.934;11.166;2023-03-03T22:27:48;4.60;99.90
13072;DHT22;6602;58.934;11.166;2023-03-03T22:33:08;4.50;99.90
13072;DHT22;6602;58.934;11.166;2023-03-03T22:38:16;4.40;99.90
13072;DHT22;6602;58.934;11.166;2023-03-03T22:43:17;4.30;99.90
13072;DHT22;6602;58.934;11.166;2023-03-03T22:48:36;4.20;99.90
13072;DHT22;6602;58.934;11.166;2023-03-03T22:53:57;4.00;99.90
13072;DHT22;6602;58.934;11.166;2023-03-03T22:59:01;3.90;99.90
13072;DHT22;6602;58.934;11.166;2023-03-03T23:04:18;3.70;99.90
13072;DHT22;6602;58.934;11.166;2023-03-03T23:09:19;3.70;99.90
13072;DHT22;6602;58.934;11.166;2023-03-03T23:14:26;3.60;99.90
13072;DHT22;6602;58.934;11.166;2023-03-03T23:19:33;3.60;99.90
13072;DHT22;6602;58.934;11.166;2023-03-03T23:24:37;3.50;99.90
13072;DHT22;6602;58.934;11.166;2023-03-03T23:29:41;3.50;99.90
13072;DHT22;6602;58.934;11.166;2023-03-03T23:34:56;3.50;99.90
13072;DHT22;6602;58.934;11.166;2023-03-03T23:40:05;3.40;99.90
13072;DHT22;6602;58.934;11.166;2023-03-03T23:45:07;3.60;99.90
13072;DHT22;6602;58.934;11.166;2023-03-03T23:50:10;3.70;99.90
13072;DHT22;6602;58.934;11.166;2023-03-03T23:55:11;3.50;99.90
